Terminal Aerodrome Forecast
Issued by NWS Shreveport, LA

Home | Current Version | Previous Version | Text Only | Print | Product List | Glossary On
Versions: 1 2 3 4 5 6 7 8 9 10 11 12 13 14 15
537
FTUS44 KSHV 250521
TAFLFK
TAF
KLFK 250521Z 2506/2606 15007KT P6SM BKN016 WS010/19025KT
      TEMPO 2510/2513 3SM BR OVC004
     FM251500 16010G17KT P6SM BKN025 BKN250
     FM252100 18010KT P6SM VCTS BKN035CB BKN100
     FM260000 18006KT P6SM BKN250=

USA.gov is the U.S. government's official web portal to all federal, state and local government web resources and services.